LIMJ 200050Z 01002KT CAVOK 20/13 Q1026 LIMJ 200020Z VRB01KT CAVOK 20/14 Q1026 LIMJ 192350Z VRB02KT CAVOK 21/14 Q1026 LIMJ 192320Z VRB02KT CAVOK 20/14 Q1026 LIMJ 192250Z VRB01KT CAVOK 21/14 Q1026 LIMJ 192220Z VRB02KT CAVOK 21/14 Q1026 LIMJ 192150Z 13004KT 080V200 CAVOK 21/14 Q1025 LIMJ 192120Z VRB02KT CAVOK 21/17 Q1025 LIMJ 192050Z VRB01KT CAVOK 21/16 Q1025 LIMJ 192020Z 28003KT CAVOK 20/18 Q1025 LIMJ 191950Z VRB02KT CAVOK 21/19 Q1025 LIMJ 191920Z 12005KT CAVOK 21/19 Q1025 LIMJ 191850Z 12006KT CAVOK 21/19 Q1025 LIMJ 191820Z 12006KT CAVOK 21/19 Q1024 LIMJ 191750Z 13005KT CAVOK 21/19 Q1024 LIMJ 191720Z 13005KT CAVOK 22/19 Q1024 LIMJ 191650Z 12007KT CAVOK 22/19 Q1024 LIMJ 191620Z 12006KT CAVOK 22/19 Q1024 LIMJ 191550Z 13005KT CAVOK 22/19 Q1024 LIMJ 191520Z 13005KT CAVOK 22/18 Q1024 LIMJ 191450Z 12006KT CAVOK 22/18 Q1024 LIMJ 191420Z 12008KT CAVOK 22/18 Q1024 LIMJ 191350Z 12009KT CAVOK 22/18 Q1024 LIMJ 191320Z 12009KT CAVOK 23/18 Q1025 LIMJ 191250Z 12009KT CAVOK 22/18 Q1025 LIMJ 191220Z 13010KT CAVOK 22/19 Q1025 LIMJ 191150Z 14007KT CAVOK 22/19 Q1025 LIMJ 191120Z 19010KT 150V220 CAVOK 22/18 Q1025 LIMJ 191050Z 07010KT 030V090 CAVOK 29/14 Q1024 LIMJ 191020Z 04009KT 020V080 CAVOK 29/14 Q1024 LIMJ 190950Z 03010KT 010V080 CAVOK 28/13 Q1024 LIMJ 190920Z 03009KT 010V070 CAVOK 28/14 Q1025 LIMJ 190850Z VRB06KT CAVOK 27/13 Q1025 LIMJ 190820Z 04008KT 350V060 CAVOK 27/13 Q1025 LIMJ 190750Z 04009KT 360V060 CAVOK 26/13 Q1025 LIMJ 190720Z 03012KT CAVOK 25/13 Q1024 LIMJ 190650Z 04011KT CAVOK 24/14 Q1024 LIMJ 190620Z 04011KT CAVOK 23/14 Q1024 LIMJ 190550Z 04012KT CAVOK 23/14 Q1024 LIMJ 190520Z 05012KT CAVOK 22/13 Q1024 LIMJ 190450Z 05011KT CAVOK 22/12 Q1024 LIMJ 190420Z 03007KT CAVOK 22/10 Q1024 LIMJ 190350Z VRB01KT CAVOK 21/12 Q1023 LIMJ 190320Z 08004KT 050V160 CAVOK 21/10 Q1023 LIMJ 190250Z VRB01KT CAVOK 21/11 Q1023 LIMJ 190220Z 36003KT 9999 FEW060 21/11 Q1023 LIMJ 190150Z 01003KT 9999 FEW060 21/11 Q1023 LIMJ 190120Z VRB01KT 9999 FEW060 21/12 Q1023 LIMJ 190050Z 36003KT 9999 SCT060 21/12 Q1023 LIMJ 190020Z VRB02KT 9999 SCT060 22/12 Q1023 LIMJ 182350Z 35002KT 9999 FEW060 22/12 Q1023 LIMJ 182320Z 02003KT 340V050 9999 SCT060 22/13 Q1023 LIMJ 182250Z 07004KT 9999 SCT060 23/12 Q1022 LIMJ 182220Z 10007KT 070V150 9999 SCT060 22/13 Q1022 LIMJ 182150Z VRB01KT 9999 SCT060 23/15 Q1022 LIMJ 182120Z VRB01KT 9999 SCT060 23/14 Q1021 LIMJ 182050Z VRB02KT 9999 FEW050 23/14 Q1021 LIMJ 182020Z VRB01KT 9999 FEW050 23/16 Q1021 LIMJ 181950Z VRB02KT 9999 FEW040 23/16 Q1021 LIMJ 181920Z VRB02KT 9999 FEW040 24/19 Q1020 LIMJ 181850Z 35003KT 310V030 9999 FEW040 23/18 Q1020 LIMJ 181820Z 26004KT 9999 FEW040 23/20 Q1020 LIMJ 181750Z 27004KT CAVOK 23/19 Q1020 LIMJ 181720Z 26006KT CAVOK 23/19 Q1020 LIMJ 181650Z 27006KT CAVOK 23/19 Q1020 LIMJ 181620Z 25004KT CAVOK 23/19 Q1020 LIMJ 181550Z 23003KT CAVOK 23/17 Q1019 LIMJ 181520Z 23004KT CAVOK 23/18 Q1019 LIMJ 181450Z 25004KT CAVOK 23/18 Q1019 LIMJ 181420Z 22005KT 9999 FEW035 22/18 Q1020 LIMJ 181350Z 23004KT 9999 FEW035 FEW040TCU SCT065 22/18 Q1020

METAR Messwerte "GENOVA/SESTRI" LIMJ

Zurück zur Übersicht

Ortsname
Ländercode / m ü. NN
Zeit Temperatur Taupunkt Rel.
Luftfeuchte
Luftdruck:
Altimeter
NN
Station
Wind in Beaufort
(Knoten)
Sichtweite
(Meter)
Wolken
(Meter über Grund)
Wettererscheinung
GENOVA/SESTRI
IT 3
Fr 20.05. 02:50201364 %1026
1026
1026
N 1 (2)>= 10000Nicht signifikant 
GENOVA/SESTRI
IT 3
Fr 20.05. 02:20201468 %1026
1026
1026
Uml 1 (1)>= 10000Nicht signifikant 
GENOVA/SESTRI
IT 3
Fr 20.05. 01:50211464 %1026
1026
1026
Uml 1 (2)>= 10000Nicht signifikant 
GENOVA/SESTRI
IT 3
Fr 20.05. 01:20201468 %1026
1026
1026
Uml 1 (2)>= 10000Nicht signifikant 
GENOVA/SESTRI
IT 3
Fr 20.05. 00:50211464 %1026
1026
1026
Uml 1 (1)>= 10000Nicht signifikant 
GENOVA/SESTRI
IT 3
Fr 20.05. 00:20211464 %1026
1026
1026
Uml 1 (2)>= 10000Nicht signifikant 
GENOVA/SESTRI
IT 3
Do 19.05. 23:50211464 %1025
1025
1025
SO 2 (4)
O - SSW
>= 10000Nicht signifikant 
GENOVA/SESTRI
IT 3
Do 19.05. 23:20211778 %1025
1025
1025
Uml 1 (2)>= 10000Nicht signifikant 
GENOVA/SESTRI
IT 3
Do 19.05. 22:50211673 %1025
1025
1025
Uml 1 (1)>= 10000Nicht signifikant 
GENOVA/SESTRI
IT 3
Do 19.05. 22:20201888 %1025
1025
1025
W 2 (3)>= 10000Nicht signifikant 
GENOVA/SESTRI
IT 3
Do 19.05. 21:50211988 %1025
1025
1025
Uml 1 (2)>= 10000Nicht signifikant 
GENOVA/SESTRI
IT 3
Do 19.05. 21:20211988 %1025
1025
1025
OSO 2 (5)>= 10000Nicht signifikant 
GENOVA/SESTRI
IT 3
Do 19.05. 20:50211988 %1025
1025
1025
OSO 2 (6)>= 10000Nicht signifikant 
GENOVA/SESTRI
IT 3
Do 19.05. 20:20211988 %1024
1024
1024
OSO 2 (6)>= 10000Nicht signifikant 
GENOVA/SESTRI
IT 3
Do 19.05. 19:50211988 %1024
1024
1024
SO 2 (5)>= 10000Nicht signifikant 
GENOVA/SESTRI
IT 3
Do 19.05. 19:20221983 %1024
1024
1024
SO 2 (5)>= 10000Nicht signifikant 
GENOVA/SESTRI
IT 3
Do 19.05. 18:50221983 %1024
1024
1024
OSO 3 (7)>= 10000Nicht signifikant 
GENOVA/SESTRI
IT 3
Do 19.05. 18:20221983 %1024
1024
1024
OSO 2 (6)>= 10000Nicht signifikant 
GENOVA/SESTRI
IT 3
Do 19.05. 17:50221983 %1024
1024
1024
SO 2 (5)>= 10000Nicht signifikant 
GENOVA/SESTRI
IT 3
Do 19.05. 17:20221878 %1024
1024
1024
SO 2 (5)>= 10000Nicht signifikant 
GENOVA/SESTRI
IT 3
Do 19.05. 16:50221878 %1024
1024
1024
OSO 2 (6)>= 10000Nicht signifikant 
GENOVA/SESTRI
IT 3
Do 19.05. 16:20221878 %1024
1024
1024
OSO 3 (8)>= 10000Nicht signifikant 
GENOVA/SESTRI
IT 3
Do 19.05. 15:50221878 %1024
1024
1024
OSO 3 (9)>= 10000Nicht signifikant 
GENOVA/SESTRI
IT 3
Do 19.05. 15:20231873 %1025
1025
1025
OSO 3 (9)>= 10000Nicht signifikant 
GENOVA/SESTRI
IT 3
Do 19.05. 14:50221878 %1025
1025
1025
OSO 3 (9)>= 10000Nicht signifikant 
GENOVA/SESTRI
IT 3
Do 19.05. 14:20221983 %1025
1025
1025
SO 3 (10)>= 10000Nicht signifikant 
GENOVA/SESTRI
IT 3
Do 19.05. 13:50221983 %1025
1025
1025
SO 3 (7)>= 10000Nicht signifikant 
GENOVA/SESTRI
IT 3
Do 19.05. 13:20221878 %1025
1025
1025
S 3 (10)
SSO - SW
>= 10000Nicht signifikant 
GENOVA/SESTRI
IT 3
Do 19.05. 12:50291440 %1024
1024
1024
ONO 3 (10)
NNO - O
>= 10000Nicht signifikant 
GENOVA/SESTRI
IT 3
Do 19.05. 12:20291440 %1024
1024
1024
NO 3 (9)
NNO - O
>= 10000Nicht signifikant 
GENOVA/SESTRI
IT 3
Do 19.05. 11:50281340 %1024
1024
1024
NNO 3 (10)
N - O
>= 10000Nicht signifikant 
GENOVA/SESTRI
IT 3
Do 19.05. 11:20281442 %1025
1025
1025
NNO 3 (9)
N - ONO
>= 10000Nicht signifikant 
GENOVA/SESTRI
IT 3
Do 19.05. 10:50271342 %1025
1025
1025
Uml 2 (6)>= 10000Nicht signifikant 
GENOVA/SESTRI
IT 3
Do 19.05. 10:20271342 %1025
1025
1025
NO 3 (8)
N - ONO
>= 10000Nicht signifikant 
GENOVA/SESTRI
IT 3
Do 19.05. 09:50261345 %1025
1025
1025
NO 3 (9)
N - ONO
>= 10000Nicht signifikant 
GENOVA/SESTRI
IT 3
Do 19.05. 09:20251347 %1024
1024
1024
NNO 4 (12)>= 10000Nicht signifikant 
GENOVA/SESTRI
IT 3
Do 19.05. 08:50241454 %1024
1024
1024
NO 4 (11)>= 10000Nicht signifikant 
GENOVA/SESTRI
IT 3
Do 19.05. 08:20231457 %1024
1024
1024
NO 4 (11)>= 10000Nicht signifikant 
GENOVA/SESTRI
IT 3
Do 19.05. 07:50231457 %1024
1024
1024
NO 4 (12)>= 10000Nicht signifikant 
GENOVA/SESTRI
IT 3
Do 19.05. 07:20221357 %1024
1024
1024
NO 4 (12)>= 10000Nicht signifikant 
GENOVA/SESTRI
IT 3
Do 19.05. 06:50221253 %1024
1024
1024
NO 4 (11)>= 10000Nicht signifikant 
GENOVA/SESTRI
IT 3
Do 19.05. 06:20221046 %1024
1024
1024
NNO 3 (7)>= 10000Nicht signifikant 
GENOVA/SESTRI
IT 3
Do 19.05. 05:50211256 %1023
1023
1023
Uml 1 (1)>= 10000Nicht signifikant 
GENOVA/SESTRI
IT 3
Do 19.05. 05:20211049 %1023
1023
1023
O 2 (4)
NO - SSO
>= 10000Nicht signifikant 
GENOVA/SESTRI
IT 3
Do 19.05. 04:50211153 %1023
1023
1023
Uml 1 (1)>= 10000Nicht signifikant 
GENOVA/SESTRI
IT 3
Do 19.05. 04:20211153 %1023
1023
1023
N 2 (3)>= 10000Leicht bewölkt (1800) 
GENOVA/SESTRI
IT 3
Do 19.05. 03:50211153 %1023
1023
1023
N 2 (3)>= 10000Leicht bewölkt (1800) 
GENOVA/SESTRI
IT 3
Do 19.05. 03:20211256 %1023
1023
1023
Uml 1 (1)>= 10000Leicht bewölkt (1800) 
GENOVA/SESTRI
IT 3
Do 19.05. 02:50211256 %1023
1023
1023
N 2 (3)>= 10000Wolkig (1800) 
GENOVA/SESTRI
IT 3
Do 19.05. 02:20221253 %1023
1023
1023
Uml 1 (2)>= 10000Wolkig (1800) 
GENOVA/SESTRI
IT 3
Do 19.05. 01:50221253 %1023
1023
1023
N 1 (2)>= 10000Leicht bewölkt (1800) 
GENOVA/SESTRI
IT 3
Do 19.05. 01:20221357 %1023
1023
1023
NNO 2 (3)
NNW - NO
>= 10000Wolkig (1800) 
GENOVA/SESTRI
IT 3
Do 19.05. 00:50231250 %1022
1022
1022
ONO 2 (4)>= 10000Wolkig (1800) 
GENOVA/SESTRI
IT 3
Do 19.05. 00:20221357 %1022
1022
1022
O 3 (7)
ONO - SSO
>= 10000Wolkig (1800) 
GENOVA/SESTRI
IT 3
Mi 18.05. 23:50231561 %1022
1022
1022
Uml 1 (1)>= 10000Wolkig (1800) 
GENOVA/SESTRI
IT 3
Mi 18.05. 23:20231457 %1021
1021
1021
Uml 1 (1)>= 10000Wolkig (1800) 
GENOVA/SESTRI
IT 3
Mi 18.05. 22:50231457 %1021
1021
1021
Uml 1 (2)>= 10000Leicht bewölkt (1500) 
GENOVA/SESTRI
IT 3
Mi 18.05. 22:20231665 %1021
1021
1021
Uml 1 (1)>= 10000Leicht bewölkt (1500) 
GENOVA/SESTRI
IT 3
Mi 18.05. 21:50231665 %1021
1021
1021
Uml 1 (2)>= 10000Leicht bewölkt (1200) 
GENOVA/SESTRI
IT 3
Mi 18.05. 21:20241974 %1020
1020
1020
Uml 1 (2)>= 10000Leicht bewölkt (1200) 
GENOVA/SESTRI
IT 3
Mi 18.05. 20:50231873 %1020
1020
1020
N 2 (3)
NW - NNO
>= 10000Leicht bewölkt (1200) 
GENOVA/SESTRI
IT 3
Mi 18.05. 20:20232083 %1020
1020
1020
W 2 (4)>= 10000Leicht bewölkt (1200) 
GENOVA/SESTRI
IT 3
Mi 18.05. 19:50231978 %1020
1020
1020
W 2 (4)>= 10000Nicht signifikant 
GENOVA/SESTRI
IT 3
Mi 18.05. 19:20231978 %1020
1020
1020
W 2 (6)>= 10000Nicht signifikant 
GENOVA/SESTRI
IT 3
Mi 18.05. 18:50231978 %1020
1020
1020
W 2 (6)>= 10000Nicht signifikant 
GENOVA/SESTRI
IT 3
Mi 18.05. 18:20231978 %1020
1020
1020
WSW 2 (4)>= 10000Nicht signifikant 
GENOVA/SESTRI
IT 3
Mi 18.05. 17:50231769 %1019
1019
1019
SW 2 (3)>= 10000Nicht signifikant 
GENOVA/SESTRI
IT 3
Mi 18.05. 17:20231873 %1019
1019
1019
SW 2 (4)>= 10000Nicht signifikant 
GENOVA/SESTRI
IT 3
Mi 18.05. 16:50231873 %1019
1019
1019
WSW 2 (4)>= 10000Nicht signifikant 
GENOVA/SESTRI
IT 3
Mi 18.05. 16:20221878 %1020
1020
1020
SW 2 (5)>= 10000Leicht bewölkt (1100) 
GENOVA/SESTRI
IT 3
Mi 18.05. 15:50221878 %1020
1020
1020
SW 2 (4)>= 10000Wolkig (2000)
Leicht bewölkt (1200)
Leicht bewölkt (1100)
 

Altimeter: Einstellung am Altimeter (Höhenmesser), die Höhe 0 muss auf diesen Luftdruckwert zeigen, damit das Gerät die Stationshöhe richtig anzeigt.

NN: Luftdruck reduziert auf "Normal Null", auf Meereshöhe, dieser von der Temperatur abhängige Wert wird bisweilen unkorrekt einfach als "Luftdruck" bezeichnet. Eigentlich nur eine fiktive Größe, die es erlaubt, Stationen auf unterschiedlichen Höhen miteinander zu vergleichen.

Station: Realer Luftdruck an der Station.